createdAt,value
2023-05-21T00:00:25.400Z,0.40
2023-05-21T00:03:28.587Z,0.40
2023-05-21T00:06:31.899Z,0.50
2023-05-21T00:09:35.526Z,0.70
2023-05-21T00:12:38.012Z,0.30
2023-05-21T00:15:40.452Z,0.40
2023-05-21T00:18:42.884Z,0.30
2023-05-21T00:21:46.052Z,0.30
2023-05-21T00:24:49.845Z,0.63
2023-05-21T00:27:52.526Z,0.40
2023-05-21T00:30:54.921Z,0.50
2023-05-21T00:33:58.536Z,0.75
2023-05-21T00:37:02.742Z,0.43
2023-05-21T00:40:07.778Z,0.23
2023-05-21T00:43:10.796Z,0.70
2023-05-21T00:46:19.600Z,0.40
2023-05-21T00:49:24.566Z,0.45
2023-05-21T00:52:27.332Z,0.60
2023-05-21T00:55:29.886Z,0.60
2023-05-21T00:58:35.800Z,0.27
2023-05-21T01:01:38.198Z,0.22
2023-05-21T01:04:40.712Z,0.60
2023-05-21T01:07:43.536Z,0.50
2023-05-21T01:10:46.113Z,0.30
2023-05-21T01:13:49.718Z,0.73
2023-05-21T01:16:53.038Z,0.50
2023-05-21T01:20:00.410Z,0.20
2023-05-21T01:23:03.201Z,1.02
2023-05-21T01:26:07.428Z,0.60
2023-05-21T01:29:13.341Z,0.50
2023-05-21T01:32:19.067Z,0.57
2023-05-21T01:35:26.525Z,0.45
2023-05-21T01:38:43.669Z,0.22
2023-05-21T01:41:47.839Z,0.50
2023-05-21T01:44:54.976Z,0.40
2023-05-21T01:47:57.958Z,0.43
2023-05-21T01:51:03.367Z,0.50
2023-05-21T01:54:05.788Z,0.30
2023-05-21T01:57:08.500Z,0.37
2023-05-21T02:00:12.056Z,0.40
2023-05-21T02:03:22.112Z,0.73
2023-05-21T02:06:25.092Z,0.93
2023-05-21T02:09:27.611Z,0.38
2023-05-21T02:12:30.074Z,1.60
2023-05-21T02:15:34.910Z,0.80
2023-05-21T02:18:44.581Z,0.52
2023-05-21T02:21:47.018Z,0.40
2023-05-21T02:24:49.718Z,0.43
2023-05-21T02:27:57.045Z,0.30
2023-05-21T02:31:00.493Z,0.60
2023-05-21T02:34:02.984Z,0.60
2023-05-21T02:37:05.548Z,0.50
2023-05-21T02:40:10.181Z,0.28
2023-05-21T02:43:14.822Z,0.70
2023-05-21T02:46:19.087Z,0.30
2023-05-21T02:49:21.718Z,0.45
2023-05-21T02:52:24.559Z,0.82
2023-05-21T02:55:27.926Z,0.50
2023-05-21T02:58:30.373Z,0.30
2023-05-21T03:01:33.015Z,0.40
2023-05-21T03:04:39.020Z,0.40
2023-05-21T03:07:42.504Z,0.40
2023-05-21T03:10:46.619Z,0.50
2023-05-21T03:13:49.121Z,0.53
2023-05-21T03:16:51.619Z,0.30
2023-05-21T03:19:54.841Z,0.50
2023-05-21T03:22:57.427Z,0.43
2023-05-21T03:25:59.825Z,0.30
2023-05-21T03:29:02.962Z,0.30
2023-05-21T03:32:06.681Z,0.43
2023-05-21T03:35:09.656Z,0.70
2023-05-21T03:38:12.107Z,0.47
2023-05-21T03:41:14.690Z,0.52
2023-05-21T03:44:20.902Z,0.30
2023-05-21T03:47:31.455Z,0.83
2023-05-21T03:50:35.293Z,0.28
2023-05-21T03:53:37.726Z,0.70
2023-05-21T03:56:40.148Z,0.50
2023-05-21T03:59:42.628Z,0.50
2023-05-21T04:02:45.287Z,0.40
2023-05-21T04:05:51.598Z,0.45
2023-05-21T04:08:54.182Z,0.47
2023-05-21T04:11:56.613Z,0.60
2023-05-21T04:14:59.076Z,0.53
2023-05-21T04:18:01.880Z,0.63
2023-05-21T04:21:05.989Z,0.30
2023-05-21T04:24:08.402Z,0.32
2023-05-21T04:27:25.764Z,0.52
2023-05-21T04:30:28.962Z,0.60
2023-05-21T04:33:31.452Z,0.30
2023-05-21T04:36:33.947Z,0.40
2023-05-21T04:39:36.541Z,0.40
2023-05-21T04:42:39.221Z,0.80
2023-05-21T04:45:41.915Z,0.70
2023-05-21T04:48:45.209Z,1.23
2023-05-21T04:51:53.050Z,0.55
2023-05-21T04:54:55.971Z,0.40
2023-05-21T04:57:58.533Z,0.30
2023-05-21T05:01:03.420Z,0.47
2023-05-21T05:04:06.584Z,0.33
2023-05-21T05:07:09.299Z,0.75
2023-05-21T05:10:11.734Z,0.57
2023-05-21T05:13:14.212Z,0.77
2023-05-21T05:16:18.493Z,0.33
2023-05-21T05:19:21.150Z,1.17
2023-05-21T05:22:23.681Z,0.60
2023-05-21T05:25:26.908Z,0.30
2023-05-21T05:28:29.419Z,0.43
2023-05-21T05:31:32.043Z,0.50
2023-05-21T05:34:34.571Z,1.00
2023-05-21T05:37:37.260Z,0.47
2023-05-21T05:40:41.249Z,0.73
2023-05-21T05:43:43.875Z,0.70
2023-05-21T05:46:46.435Z,0.30
2023-05-21T05:49:49.054Z,0.87
2023-05-21T05:52:51.569Z,1.27
2023-05-21T05:55:53.963Z,0.30
2023-05-21T05:58:56.592Z,0.82
2023-05-21T06:02:00.885Z,1.27
2023-05-21T06:05:04.144Z,0.37
2023-05-21T06:08:07.311Z,1.00
2023-05-21T06:11:10.947Z,0.32
2023-05-21T06:14:13.646Z,0.77
2023-05-21T06:17:16.585Z,0.83
2023-05-21T06:20:19.212Z,0.43
2023-05-21T06:23:22.621Z,0.43
2023-05-21T06:26:25.676Z,0.70
2023-05-21T06:29:28.405Z,0.60
2023-05-21T06:32:31.019Z,0.33
2023-05-21T06:35:37.249Z,0.57
2023-05-21T06:38:40.000Z,0.43
2023-05-21T06:41:42.651Z,0.70
2023-05-21T06:45:16.995Z,1.00
2023-05-21T06:48:20.764Z,0.60
2023-05-21T06:51:23.942Z,0.90
2023-05-21T06:54:27.137Z,0.50
2023-05-21T06:57:30.059Z,0.73
2023-05-21T07:00:33.253Z,0.60
2023-05-21T07:03:36.667Z,0.73
2023-05-21T07:06:39.268Z,0.60
2023-05-21T07:09:41.752Z,1.25
2023-05-21T07:12:44.622Z,0.77
2023-05-21T07:15:47.208Z,0.50
2023-05-21T07:18:49.860Z,0.93
2023-05-21T07:21:52.490Z,0.63
2023-05-21T07:24:54.998Z,0.47
2023-05-21T07:27:57.465Z,0.60
2023-05-21T07:31:00.057Z,0.50
2023-05-21T07:34:08.465Z,1.00
2023-05-21T07:37:11.084Z,0.90
2023-05-21T07:40:14.102Z,0.88
2023-05-21T07:43:18.278Z,0.90
2023-05-21T07:46:20.857Z,0.82
2023-05-21T07:49:26.897Z,0.73
2023-05-21T07:52:29.578Z,1.20
2023-05-21T07:55:32.433Z,0.55
2023-05-21T07:58:38.024Z,1.40
2023-05-21T08:01:41.158Z,0.73
2023-05-21T08:04:44.587Z,0.60
2023-05-21T08:07:47.158Z,1.17
2023-05-21T08:10:50.056Z,0.70
2023-05-21T08:13:53.453Z,1.20
2023-05-21T08:16:57.301Z,0.60
2023-05-21T08:19:59.763Z,0.60
2023-05-21T08:23:04.254Z,0.80
2023-05-21T08:26:16.597Z,0.82
2023-05-21T08:29:19.344Z,0.93
2023-05-21T08:32:23.067Z,0.60
2023-05-21T08:35:25.661Z,0.60
2023-05-21T08:38:50.896Z,0.60
2023-05-21T08:42:35.763Z,0.70
2023-05-21T08:45:44.700Z,0.77
2023-05-21T08:48:47.486Z,0.60
2023-05-21T08:51:50.708Z,0.60
2023-05-21T08:54:54.710Z,0.80
2023-05-21T08:57:57.696Z,0.82
2023-05-21T09:01:01.950Z,0.93
2023-05-21T09:04:19.486Z,0.65
2023-05-21T09:07:29.286Z,0.80
2023-05-21T09:10:51.331Z,0.87
2023-05-21T09:13:58.062Z,0.60
2023-05-21T09:17:38.838Z,0.93
2023-05-21T09:21:23.825Z,0.70
2023-05-21T09:24:31.261Z,0.80
2023-05-21T09:27:34.259Z,0.80
2023-05-21T09:30:36.917Z,0.73
2023-05-21T09:33:46.706Z,0.65
2023-05-21T09:36:50.157Z,0.98
2023-05-21T09:39:53.015Z,1.23
2023-05-21T09:42:55.944Z,1.47
2023-05-21T09:46:02.095Z,0.85
2023-05-21T09:49:23.034Z,0.70
2023-05-21T09:52:26.184Z,1.23
2023-05-21T09:55:28.648Z,1.00
2023-05-21T09:58:31.370Z,1.00
2023-05-21T10:01:34.925Z,1.05
2023-05-21T10:04:37.373Z,1.00
2023-05-21T10:07:42.259Z,1.00
2023-05-21T10:10:46.638Z,0.60
2023-05-21T10:14:00.984Z,1.20
2023-05-21T10:17:06.393Z,1.20
2023-05-21T10:20:10.852Z,0.80
2023-05-21T10:23:13.331Z,0.70
2023-05-21T10:26:16.556Z,0.80
2023-05-21T10:29:20.226Z,1.73
2023-05-21T10:32:23.222Z,0.75
2023-05-21T10:35:27.041Z,0.95
2023-05-21T10:38:30.479Z,1.10
2023-05-21T10:41:42.777Z,1.05
2023-05-21T10:45:23.049Z,1.30
2023-05-21T10:49:02.370Z,0.75
2023-05-21T10:52:14.296Z,0.70
2023-05-21T10:55:41.612Z,0.98
2023-05-21T10:59:05.396Z,1.38
2023-05-21T11:02:09.448Z,1.13
2023-05-21T11:05:12.300Z,1.25
2023-05-21T11:08:31.777Z,0.80
2023-05-21T11:11:43.783Z,0.98
2023-05-21T11:14:58.689Z,1.25
2023-05-21T11:18:01.315Z,1.10
2023-05-21T11:21:10.794Z,1.33
2023-05-21T11:24:19.501Z,1.30
2023-05-21T11:27:31.029Z,0.98
2023-05-21T11:30:35.309Z,1.00
2023-05-21T11:33:38.506Z,1.10
2023-05-21T11:36:43.961Z,0.98
2023-05-21T11:39:47.563Z,1.20
2023-05-21T11:42:52.783Z,1.00
2023-05-21T11:45:55.976Z,0.90
2023-05-21T11:48:59.237Z,0.80
2023-05-21T11:52:02.278Z,1.00
2023-05-21T11:55:05.115Z,1.00
2023-05-21T11:58:09.154Z,1.10
2023-05-21T12:01:22.295Z,1.25
2023-05-21T12:04:29.549Z,1.50
2023-05-21T12:07:32.087Z,0.90
2023-05-21T12:10:34.805Z,1.15
2023-05-21T12:13:38.059Z,1.40
2023-05-21T12:16:42.097Z,1.55
2023-05-21T12:19:46.324Z,1.47
2023-05-21T12:22:50.542Z,1.00
2023-05-21T12:25:56.371Z,1.17
2023-05-21T12:28:59.285Z,1.27
2023-05-21T12:32:03.873Z,1.00
2023-05-21T12:35:06.998Z,1.60
2023-05-21T12:38:10.009Z,1.30
2023-05-21T12:41:12.484Z,1.45
2023-05-21T12:44:16.570Z,1.65
2023-05-21T12:47:19.387Z,1.20
2023-05-21T12:50:22.236Z,1.23
2023-05-21T12:53:24.800Z,1.40
2023-05-21T12:56:27.354Z,1.30
2023-05-21T12:59:43.678Z,1.42
2023-05-21T13:02:47.521Z,1.30
2023-05-21T13:05:58.714Z,1.40
2023-05-21T13:09:01.079Z,1.70
2023-05-21T13:12:03.950Z,1.45
2023-05-21T13:15:08.174Z,1.60
2023-05-21T13:18:12.361Z,1.60
2023-05-21T13:21:14.835Z,1.70
2023-05-21T13:24:17.289Z,1.60
2023-05-21T13:27:20.089Z,1.35
2023-05-21T13:30:22.915Z,1.45
2023-05-21T13:33:25.476Z,1.75
2023-05-21T13:36:27.995Z,1.57
2023-05-21T13:39:30.744Z,1.60
2023-05-21T13:42:34.129Z,1.42
2023-05-21T13:45:36.942Z,1.42
2023-05-21T13:48:40.547Z,2.00
2023-05-21T13:51:43.385Z,1.80
2023-05-21T13:54:46.252Z,1.98
2023-05-21T13:57:48.662Z,1.80
2023-05-21T14:00:51.119Z,2.03
2023-05-21T14:03:53.868Z,2.05
2023-05-21T14:06:56.794Z,1.80
2023-05-21T14:09:59.186Z,1.90
2023-05-21T14:13:11.890Z,1.60
2023-05-21T14:16:23.165Z,1.27
2023-05-21T14:19:26.314Z,1.55
2023-05-21T14:22:28.931Z,1.50
2023-05-21T14:25:31.435Z,1.60
2023-05-21T14:28:33.870Z,1.23
2023-05-21T14:31:36.922Z,1.27
2023-05-21T14:34:40.424Z,1.80
2023-05-21T14:37:43.117Z,1.50
2023-05-21T14:40:45.656Z,1.38
2023-05-21T14:43:48.087Z,1.10
2023-05-21T14:46:51.334Z,0.90
2023-05-21T14:49:53.817Z,0.80
2023-05-21T14:52:56.292Z,0.97
2023-05-21T14:55:58.832Z,0.80
2023-05-21T14:59:01.217Z,0.70
2023-05-21T15:02:03.832Z,0.75
2023-05-21T15:05:06.660Z,0.70
2023-05-21T15:08:09.718Z,0.70
2023-05-21T15:11:12.082Z,0.93
2023-05-21T15:14:14.416Z,0.50
2023-05-21T15:17:17.030Z,0.65
2023-05-21T15:20:19.749Z,0.75
2023-05-21T15:23:22.193Z,0.60
2023-05-21T15:26:26.940Z,0.63
2023-05-21T15:29:29.711Z,0.70
2023-05-21T15:32:32.318Z,0.60
2023-05-21T15:35:38.044Z,0.80
2023-05-21T15:38:40.854Z,0.90
2023-05-21T15:41:43.914Z,0.63
2023-05-21T15:44:46.525Z,0.88
2023-05-21T15:47:49.300Z,0.88
2023-05-21T15:50:51.798Z,0.70
2023-05-21T15:53:54.459Z,0.70
2023-05-21T15:56:56.909Z,0.80
2023-05-21T15:59:59.602Z,0.70
2023-05-21T16:03:02.481Z,0.68
2023-05-21T16:06:06.467Z,0.57
2023-05-21T16:09:08.878Z,1.07
2023-05-21T16:12:11.269Z,0.82
2023-05-21T16:15:13.841Z,0.98
2023-05-21T16:18:16.333Z,0.57
2023-05-21T16:21:19.009Z,0.75
2023-05-21T16:24:21.777Z,1.47
2023-05-21T16:27:25.051Z,0.73
2023-05-21T16:30:27.842Z,0.90
2023-05-21T16:33:30.429Z,1.00
2023-05-21T16:36:32.963Z,1.05
2023-05-21T16:39:35.925Z,1.47
2023-05-21T16:42:40.124Z,0.80
2023-05-21T16:45:44.937Z,0.98
2023-05-21T16:48:47.371Z,1.25
2023-05-21T16:51:49.982Z,0.88
2023-05-21T16:54:52.657Z,0.70
2023-05-21T16:57:55.507Z,1.10
2023-05-21T17:00:58.008Z,1.67
2023-05-21T17:04:00.666Z,0.60
2023-05-21T17:07:03.693Z,1.08
2023-05-21T17:10:07.038Z,0.77
2023-05-21T17:13:20.678Z,0.80
2023-05-21T17:16:25.092Z,1.00
2023-05-21T17:19:27.787Z,0.50
2023-05-21T17:22:30.449Z,0.88
2023-05-21T17:25:34.406Z,0.97
2023-05-21T17:28:37.221Z,0.60
2023-05-21T17:31:40.024Z,1.25
2023-05-21T17:34:43.467Z,0.98
2023-05-21T17:37:45.984Z,0.52
2023-05-21T17:40:51.223Z,0.67
2023-05-21T17:43:53.627Z,0.77
2023-05-21T17:46:56.646Z,0.90
2023-05-21T17:49:59.686Z,0.63
2023-05-21T17:53:02.066Z,0.30
2023-05-21T17:56:05.097Z,0.90
2023-05-21T17:59:11.425Z,0.40
2023-05-21T18:02:14.164Z,1.17
2023-05-21T18:05:16.706Z,0.70
2023-05-21T18:08:19.230Z,0.52
2023-05-21T18:11:22.411Z,0.50
2023-05-21T18:14:24.866Z,0.75
2023-05-21T18:17:27.430Z,0.85
2023-05-21T18:20:30.500Z,0.63
2023-05-21T18:23:32.977Z,0.80
2023-05-21T18:26:35.565Z,0.67
2023-05-21T18:29:38.004Z,0.80
2023-05-21T18:32:40.870Z,1.15
2023-05-21T18:35:44.555Z,0.60
2023-05-21T18:38:47.186Z,0.65
2023-05-21T18:41:51.723Z,1.10
2023-05-21T18:45:06.636Z,0.77
2023-05-21T18:48:09.179Z,0.75
2023-05-21T18:51:11.638Z,0.60
2023-05-21T18:54:14.122Z,0.50
2023-05-21T18:57:16.763Z,0.60
2023-05-21T19:00:19.389Z,0.88
2023-05-21T19:03:21.747Z,0.60
2023-05-21T19:06:25.710Z,0.88
2023-05-21T19:09:28.638Z,0.53
2023-05-21T19:12:31.772Z,0.40
2023-05-21T19:15:34.454Z,0.35
2023-05-21T19:18:37.176Z,0.77
2023-05-21T19:21:39.612Z,0.60
2023-05-21T19:24:45.308Z,0.43
2023-05-21T19:27:47.776Z,0.40
2023-05-21T19:30:50.784Z,0.90
2023-05-21T19:33:53.377Z,0.45
2023-05-21T19:36:55.865Z,0.40
2023-05-21T19:39:58.392Z,0.60
2023-05-21T19:43:02.752Z,0.63
2023-05-21T19:46:05.634Z,0.57
2023-05-21T19:49:10.778Z,0.68
2023-05-21T19:52:13.495Z,0.63
2023-05-21T19:55:20.245Z,0.80
2023-05-21T19:58:26.803Z,0.53
2023-05-21T20:01:33.117Z,0.40
2023-05-21T20:04:35.816Z,0.80
2023-05-21T20:07:38.363Z,0.40
2023-05-21T20:10:41.036Z,0.30
2023-05-21T20:13:48.534Z,0.43
2023-05-21T20:16:51.159Z,0.50
2023-05-21T20:19:53.650Z,0.40
2023-05-21T20:23:03.269Z,0.40
2023-05-21T20:26:05.776Z,0.27
2023-05-21T20:29:08.402Z,0.40
2023-05-21T20:32:10.990Z,0.40
2023-05-21T20:35:13.400Z,0.50
2023-05-21T20:38:15.993Z,0.40
2023-05-21T20:41:20.129Z,0.53
2023-05-21T20:44:22.649Z,0.37
2023-05-21T20:47:25.198Z,0.30
2023-05-21T20:50:28.864Z,0.88
2023-05-21T20:53:31.352Z,0.40
2023-05-21T20:56:42.118Z,0.40
2023-05-21T20:59:45.198Z,0.40
2023-05-21T21:02:47.641Z,0.28
2023-05-21T21:05:50.232Z,0.30
2023-05-21T21:08:55.570Z,0.40
2023-05-21T21:12:06.128Z,0.43
2023-05-21T21:15:14.249Z,0.40
2023-05-21T21:18:16.784Z,0.38
2023-05-21T21:21:19.197Z,0.40
2023-05-21T21:24:21.579Z,0.30
2023-05-21T21:27:24.004Z,0.80
2023-05-21T21:30:26.452Z,0.43
2023-05-21T21:33:28.961Z,0.55
2023-05-21T21:36:31.518Z,0.45
2023-05-21T21:39:33.890Z,0.38
2023-05-21T21:42:36.498Z,0.83
2023-05-21T21:45:38.999Z,0.60
2023-05-21T21:48:41.403Z,0.47
2023-05-21T21:51:44.682Z,0.50
2023-05-21T21:54:47.219Z,0.60
2023-05-21T21:57:49.962Z,0.43
2023-05-21T22:00:53.034Z,0.47
2023-05-21T22:03:55.508Z,0.30
2023-05-21T22:06:57.871Z,0.30
2023-05-21T22:10:00.544Z,0.40
2023-05-21T22:13:03.009Z,0.30
2023-05-21T22:16:05.832Z,0.30
2023-05-21T22:19:08.515Z,0.50
2023-05-21T22:22:12.150Z,0.38
2023-05-21T22:25:14.669Z,0.40
2023-05-21T22:28:17.132Z,0.30
2023-05-21T22:31:19.630Z,0.30
2023-05-21T22:34:25.247Z,0.20
2023-05-21T22:37:28.164Z,0.40
2023-05-21T22:40:30.656Z,0.30
2023-05-21T22:43:34.617Z,0.30
2023-05-21T22:46:38.303Z,0.30
2023-05-21T22:49:41.032Z,0.40
2023-05-21T22:52:43.686Z,0.30
2023-05-21T22:55:46.184Z,0.50
2023-05-21T22:58:48.693Z,0.30
2023-05-21T23:01:51.483Z,0.57
2023-05-21T23:04:53.938Z,0.52
2023-05-21T23:07:56.380Z,0.20
2023-05-21T23:10:59.248Z,0.50
2023-05-21T23:14:01.664Z,0.40
2023-05-21T23:17:04.541Z,0.40
2023-05-21T23:20:08.829Z,0.30
2023-05-21T23:23:11.265Z,0.30
2023-05-21T23:26:13.703Z,0.30
2023-05-21T23:29:16.146Z,0.40
2023-05-21T23:32:18.696Z,0.50
2023-05-21T23:35:21.085Z,0.30
2023-05-21T23:38:24.491Z,0.30
2023-05-21T23:41:27.840Z,0.30
2023-05-21T23:44:30.320Z,0.30
2023-05-21T23:47:32.754Z,0.47
2023-05-21T23:50:35.284Z,0.30
2023-05-21T23:53:38.091Z,0.38
2023-05-21T23:56:40.633Z,0.38
2023-05-21T23:59:43.137Z,0.20
